Time;durP1;ratioP1;P1;durP2;ratioP2;P2;SDS_P1;SDS_P2;PMS_P1;PMS_P2;Temp;Humidity;BMP_temperature;BMP_pressure;BME280_temperature;BME280_humidity;BME280_pressure;Samples;Min_cycle;Max_cycle;Signal;HPM_P1;HPM_P2
2021/01/17 00:01:44;;;;;;;6.25;3.40;;;1.40;90.60;;;;;;5053079;28;20418;-78
2021/01/17 00:04:09;;;;;;;6.05;3.40;;;1.40;90.80;;;;;;5050262;28;20021;-78
2021/01/17 00:06:35;;;;;;;7.28;4.05;;;1.40;91.00;;;;;;5051220;28;20035;-78
2021/01/17 00:09:01;;;;;;;6.32;3.67;;;1.40;90.90;;;;;;5054354;28;20035;-77
2021/01/17 00:11:26;;;;;;;7.30;3.92;;;1.40;91.20;;;;;;5053368;28;20021;-78
2021/01/17 00:13:52;;;;;;;6.70;4.07;;;1.30;91.50;;;;;;5047842;28;20028;-78
2021/01/17 00:16:17;;;;;;;7.47;4.18;;;1.30;91.70;;;;;;5067476;28;20075;-78
2021/01/17 00:18:45;;;;;;;6.35;3.67;;;1.20;91.70;;;;;;5056868;28;20028;-78
2021/01/17 00:21:11;;;;;;;9.43;4.85;;;1.10;91.90;;;;;;5054638;28;20458;-78
2021/01/17 00:23:37;;;;;;;9.25;4.70;;;1.10;92.20;;;;;;5053515;28;20064;-78
2021/01/17 00:26:02;;;;;;;7.90;4.28;;;1.10;92.20;;;;;;5055718;28;20021;-79
2021/01/17 00:28:28;;;;;;;7.43;4.40;;;1.10;92.40;;;;;;5048883;28;20139;-78
2021/01/17 00:30:53;;;;;;;6.80;4.15;;;1.20;92.40;;;;;;5057182;28;20032;-78
2021/01/17 00:33:19;;;;;;;8.88;3.95;;;1.30;92.20;;;;;;5053831;28;20017;-78
2021/01/17 00:35:44;;;;;;;8.95;5.15;;;1.20;92.00;;;;;;5059876;28;20556;-78
2021/01/17 00:38:10;;;;;;;7.63;4.20;;;1.10;92.30;;;;;;5062357;28;20032;-78
2021/01/17 00:40:35;;;;;;;7.05;4.43;;;1.00;92.70;;;;;;5061835;28;20021;-78
2021/01/17 00:43:01;;;;;;;7.18;4.20;;;1.10;92.40;;;;;;5051673;28;20075;-78
2021/01/17 00:45:28;;;;;;;8.68;4.63;;;1.10;92.50;;;;;;5068618;28;20047;-78
2021/01/17 00:47:53;;;;;;;7.38;4.03;;;1.10;92.50;;;;;;5065399;28;20117;-78
2021/01/17 00:50:20;;;;;;;6.57;4.00;;;1.00;93.00;;;;;;5052341;28;20442;-78
2021/01/17 00:52:50;;;;;;;9.40;4.70;;;1.10;92.80;;;;;;5054942;28;20433;-78
2021/01/17 00:55:15;;;;;;;8.77;4.25;;;1.10;92.50;;;;;;5063569;28;20044;-78
2021/01/17 00:57:40;;;;;;;8.07;4.80;;;1.00;92.90;;;;;;5065290;28;20057;-78
2021/01/17 01:00:09;;;;;;;7.80;4.43;;;0.90;93.40;;;;;;5062109;28;20139;-78
2021/01/17 01:02:35;;;;;;;6.82;4.53;;;0.90;93.40;;;;;;5052634;28;20068;-78
2021/01/17 01:05:02;;;;;;;8.32;5.28;;;1.00;92.80;;;;;;5051518;28;20114;-78
2021/01/17 01:07:27;;;;;;;10.25;5.07;;;0.90;93.00;;;;;;5067538;28;20040;-78
2021/01/17 01:09:53;;;;;;;9.05;4.57;;;0.90;93.10;;;;;;5061356;28;20391;-78
2021/01/17 01:12:18;;;;;;;9.93;5.18;;;0.90;93.60;;;;;;5064772;28;20103;-78
2021/01/17 01:14:44;;;;;;;8.15;4.68;;;0.90;94.20;;;;;;5063711;28;20105;-78
2021/01/17 01:17:09;;;;;;;11.20;5.20;;;0.90;93.90;;;;;;5055471;28;20024;-78
2021/01/17 01:19:35;;;;;;;7.93;4.43;;;0.80;94.30;;;;;;5060249;28;20024;-78
2021/01/17 01:22:02;;;;;;;10.30;5.10;;;0.90;94.40;;;;;;5061651;28;20087;-78
2021/01/17 01:24:30;;;;;;;8.80;4.45;;;0.80;94.60;;;;;;5055068;28;20104;-78
2021/01/17 01:26:55;;;;;;;8.48;4.95;;;0.80;94.00;;;;;;5050554;28;20040;-78
2021/01/17 01:29:21;;;;;;;9.70;4.63;;;0.80;93.90;;;;;;5058463;28;20020;-78
2021/01/17 01:31:46;;;;;;;8.57;4.53;;;0.80;94.50;;;;;;5056248;28;20373;-78
2021/01/17 01:34:11;;;;;;;8.75;4.80;;;0.90;93.70;;;;;;5055128;28;20078;-78
2021/01/17 01:36:39;;;;;;;8.57;4.88;;;1.00;93.20;;;;;;5063782;28;20154;-77
2021/01/17 01:39:06;;;;;;;11.82;4.43;;;1.00;93.30;;;;;;5051153;28;20052;-78
2021/01/17 01:41:34;;;;;;;8.25;4.50;;;0.90;93.70;;;;;;5053789;28;20083;-78
2021/01/17 01:43:59;;;;;;;7.22;4.47;;;0.90;93.20;;;;;;5055752;28;20102;-78
2021/01/17 01:46:27;;;;;;;8.95;4.85;;;0.90;93.30;;;;;;5055048;28;20515;-78
2021/01/17 01:48:53;;;;;;;10.52;5.57;;;0.80;93.50;;;;;;5063848;28;20037;-78
2021/01/17 01:51:22;;;;;;;8.10;4.78;;;0.80;94.60;;;;;;5049642;28;20112;-78
2021/01/17 01:53:50;;;;;;;7.97;4.65;;;0.70;94.60;;;;;;5062488;28;20388;-78
2021/01/17 01:56:16;;;;;;;9.40;4.60;;;0.80;95.00;;;;;;5052426;28;20087;-78
2021/01/17 01:58:42;;;;;;;8.57;4.63;;;0.90;94.30;;;;;;5053180;28;20033;-78
2021/01/17 02:01:08;;;;;;;11.05;5.22;;;0.90;94.20;;;;;;5050534;28;20488;-78
2021/01/17 02:03:34;;;;;;;8.85;4.60;;;0.90;94.00;;;;;;5053911;28;20033;-78
2021/01/17 02:06:00;;;;;;;10.10;4.50;;;0.80;94.10;;;;;;5056067;28;20359;-78
2021/01/17 02:09:03;;;;;;;8.32;4.63;;;0.80;94.60;;;;;;5058612;28;20033;-78
2021/01/17 02:11:51;;;;;;;10.18;4.93;;;1.00;93.70;;;;;;5050028;28;20094;-78
2021/01/17 02:14:32;;;;;;;8.80;4.35;;;1.00;93.30;;;;;;5057644;28;20028;-78
2021/01/17 02:17:00;;;;;;;9.05;5.13;;;0.90;93.90;;;;;;5054402;28;20040;-78
2021/01/17 02:19:34;;;;;;;8.40;4.22;;;0.90;93.80;;;;;;5052416;28;20059;-78
2021/01/17 02:22:02;;;;;;;8.68;4.78;;;1.00;94.10;;;;;;5063412;28;20024;-78
2021/01/17 02:24:33;;;;;;;9.93;5.18;;;0.90;93.80;;;;;;5058258;28;20025;-78
2021/01/17 02:26:59;;;;;;;;;;;0.80;94.20;;;;;;5053046;28;20029;-78
2021/01/17 02:29:26;;;;;;;8.52;4.90;;;1.00;93.90;;;;;;5053420;28;19909;-78
2021/01/17 02:31:55;;;;;;;10.15;4.93;;;1.00;93.80;;;;;;5056139;28;20059;-79
2021/01/17 02:34:23;;;;;;;11.15;5.70;;;1.00;93.60;;;;;;5055106;28;20060;-78
2021/01/17 02:36:59;;;;;;;10.75;5.07;;;0.80;94.60;;;;;;5063073;28;20029;-78
2021/01/17 02:39:53;;;;;;;8.18;5.00;;;0.90;94.40;;;;;;5052460;28;20029;-78
2021/01/17 02:42:19;;;;;;;8.50;4.90;;;1.00;93.60;;;;;;5049284;28;20488;-78
2021/01/17 02:44:46;;;;;;;9.23;4.65;;;0.90;93.60;;;;;;5049908;28;20051;-78
2021/01/17 02:47:12;;;;;;;10.50;5.15;;;1.00;93.80;;;;;;5050991;28;20033;-78
2021/01/17 02:49:38;;;;;;;10.65;5.43;;;0.80;94.60;;;;;;5058684;28;20037;-78
2021/01/17 02:52:06;;;;;;;8.35;5.05;;;0.70;95.00;;;;;;5059896;28;20475;-78
2021/01/17 02:54:37;;;;;;;8.18;4.80;;;0.80;95.00;;;;;;5061233;28;20048;-78
2021/01/17 02:57:11;;;;;;;9.98;5.40;;;0.80;95.20;;;;;;5061470;28;20044;-79
2021/01/17 02:59:51;;;;;;;8.68;4.97;;;0.80;94.60;;;;;;5061470;28;20082;-78
2021/01/17 03:02:19;;;;;;;8.65;4.63;;;0.90;95.00;;;;;;5049737;28;20025;-78
2021/01/17 03:04:52;;;;;;;11.63;4.93;;;0.90;94.80;;;;;;5051360;28;20195;-78
2021/01/17 03:07:19;;;;;;;8.45;5.00;;;1.10;94.30;;;;;;5049345;28;20575;-78
2021/01/17 03:09:45;;;;;;;9.35;5.32;;;1.10;94.00;;;;;;5057377;28;20029;-78
2021/01/17 03:12:11;;;;;;;10.75;5.65;;;1.10;93.70;;;;;;5055452;28;20378;-78
2021/01/17 03:14:38;;;;;;;9.05;5.32;;;1.00;93.90;;;;;;5063220;28;20075;-78
2021/01/17 03:17:05;;;;;;;11.45;5.18;;;1.10;93.70;;;;;;5062742;28;20115;-78
2021/01/17 03:19:30;;;;;;;9.20;5.53;;;1.10;93.50;;;;;;5066344;28;20024;-78
2021/01/17 03:21:56;;;;;;;10.23;5.10;;;1.10;93.40;;;;;;5061312;28;20086;-78
2021/01/17 03:24:21;;;;;;;8.77;4.78;;;1.10;93.60;;;;;;5056163;28;20513;-78
2021/01/17 03:26:47;;;;;;;8.48;4.63;;;1.00;93.70;;;;;;5059458;28;20052;-78
2021/01/17 03:29:12;;;;;;;9.38;5.28;;;1.00;93.50;;;;;;5053459;28;20048;-78
2021/01/17 03:31:38;;;;;;;12.40;5.35;;;1.00;93.50;;;;;;5058354;28;20032;-78
2021/01/17 03:34:03;;;;;;;10.60;4.97;;;0.80;93.60;;;;;;5049380;28;20017;-78
2021/01/17 03:36:29;;;;;;;10.70;5.47;;;0.90;93.70;;;;;;5053383;28;20021;-78
2021/01/17 03:38:54;;;;;;;9.93;5.18;;;1.00;93.90;;;;;;5058900;28;20111;-77
2021/01/17 03:41:22;;;;;;;13.30;5.45;;;0.90;93.70;;;;;;5054902;28;20131;-78
2021/01/17 03:43:47;;;;;;;8.95;4.97;;;0.90;93.80;;;;;;5055720;28;20087;-78
2021/01/17 03:46:12;;;;;;;9.80;5.05;;;0.90;93.50;;;;;;5056978;28;20483;-78
2021/01/17 03:48:38;;;;;;;8.55;5.03;;;0.90;93.60;;;;;;5052149;28;20060;-77
2021/01/17 03:51:03;;;;;;;9.65;5.20;;;0.80;93.70;;;;;;5057161;28;20037;-77
2021/01/17 03:53:29;;;;;;;8.98;4.65;;;0.80;93.90;;;;;;5050272;28;20053;-78
2021/01/17 03:55:54;;;;;;;11.85;5.22;;;0.80;94.30;;;;;;5050186;28;20029;-77
2021/01/17 03:58:20;;;;;;;9.07;4.82;;;0.70;93.60;;;;;;5054689;28;20048;-77
2021/01/17 04:00:45;;;;;;;8.82;4.75;;;0.60;94.20;;;;;;5049599;28;20033;-78
2021/01/17 04:03:11;;;;;;;11.13;5.38;;;0.50;94.70;;;;;;5057010;28;20031;-77
2021/01/17 04:05:36;;;;;;;10.10;4.90;;;0.60;94.40;;;;;;5058525;28;20041;-78
2021/01/17 04:08:02;;;;;;;10.48;4.90;;;0.60;94.20;;;;;;5058316;28;20112;-78
2021/01/17 04:10:27;;;;;;;11.95;5.63;;;0.70;93.90;;;;;;5049495;28;20032;-78
2021/01/17 04:12:52;;;;;;;8.45;4.85;;;0.60;93.80;;;;;;5059638;28;20060;-78
2021/01/17 04:15:18;;;;;;;10.00;5.07;;;0.60;93.70;;;;;;5053895;28;20035;-78
2021/01/17 04:17:47;;;;;;;10.85;5.40;;;0.60;94.30;;;;;;5060891;28;20455;-77
2021/01/17 04:20:13;;;;;;;10.93;5.43;;;0.60;93.80;;;;;;5053748;28;20036;-78
2021/01/17 04:22:39;;;;;;;9.20;5.22;;;0.50;94.50;;;;;;5054607;28;20037;-78
2021/01/17 04:25:05;;;;;;;10.23;5.20;;;0.50;94.80;;;;;;5053507;28;20095;-78
2021/01/17 04:27:31;;;;;;;12.52;5.85;;;0.40;94.50;;;;;;5066717;28;20070;-78
2021/01/17 04:29:56;;;;;;;9.75;4.97;;;0.50;94.40;;;;;;5068520;28;20098;-78
2021/01/17 04:32:22;;;;;;;10.73;5.55;;;0.40;94.90;;;;;;5060341;28;20025;-78
2021/01/17 04:34:47;;;;;;;9.70;5.40;;;0.50;94.80;;;;;;5056666;28;20029;-77
2021/01/17 04:37:13;;;;;;;10.73;5.47;;;0.50;94.70;;;;;;5055019;28;20116;-78
2021/01/17 04:39:38;;;;;;;12.73;5.80;;;0.60;94.50;;;;;;5056315;28;20467;-78
2021/01/17 04:42:08;;;;;;;8.02;4.68;;;0.60;94.60;;;;;;5057844;28;20025;-79
2021/01/17 04:44:35;;;;;;;10.07;5.50;;;0.50;94.70;;;;;;5053909;28;20247;-78
2021/01/17 04:47:05;;;;;;;10.80;5.50;;;0.40;95.70;;;;;;5052983;28;20036;-79
2021/01/17 04:49:40;;;;;;;12.07;5.97;;;0.50;95.50;;;;;;5053419;28;20032;-78
2021/01/17 04:52:12;;;;;;;10.93;5.70;;;0.50;96.00;;;;;;5064541;28;20040;-78
2021/01/17 04:54:37;;;;;;;10.98;5.93;;;0.50;95.70;;;;;;5051465;28;20059;-78
2021/01/17 04:57:08;;;;;;;13.02;5.75;;;0.60;95.90;;;;;;5051725;28;20536;-78
2021/01/17 04:59:46;;;;;;;10.57;5.80;;;0.50;96.00;;;;;;5053788;28;20025;-78
2021/01/17 05:02:31;;;;;;;11.65;5.78;;;0.70;95.70;;;;;;5063384;28;20028;-79
2021/01/17 05:05:21;;;;;;;9.95;5.85;;;0.60;95.70;;;;;;5055766;28;20043;-78
2021/01/17 05:08:29;;;;;;;11.40;5.93;;;0.60;95.70;;;;;;5052530;28;20021;-78
2021/01/17 05:11:01;;;;;;;11.13;5.90;;;0.60;95.80;;;;;;5058197;28;20021;-78
2021/01/17 05:13:48;;;;;;;14.77;6.53;;;0.70;95.50;;;;;;5051906;28;20070;-78
2021/01/17 05:16:15;;;;;;;12.00;5.85;;;0.70;95.70;;;;;;5053722;28;20048;-78
2021/01/17 05:18:47;;;;;;;11.07;5.70;;;0.60;96.10;;;;;;5050946;28;20056;-78
2021/01/17 05:21:19;;;;;;;12.77;6.45;;;0.60;96.30;;;;;;5069497;28;20033;-78
2021/01/17 05:23:46;;;;;;;12.43;6.25;;;0.60;96.40;;;;;;5054543;28;20143;-78
2021/01/17 05:26:13;;;;;;;14.63;6.32;;;0.60;96.40;;;;;;5051877;28;20033;-79
2021/01/17 05:28:38;;;;;;;13.65;6.45;;;0.70;96.30;;;;;;5061138;28;20082;-78
2021/01/17 05:31:04;;;;;;;14.95;6.35;;;0.60;96.30;;;;;;5055213;28;20028;-78
2021/01/17 05:33:31;;;;;;;10.00;5.97;;;0.70;96.50;;;;;;5051644;28;20048;-78
2021/01/17 05:35:59;;;;;;;11.68;5.90;;;0.70;96.50;;;;;;5055807;28;20049;-78
2021/01/17 05:38:25;;;;;;;11.80;5.70;;;0.80;96.50;;;;;;5062290;28;20407;-78
2021/01/17 05:40:51;;;;;;;9.20;5.38;;;0.70;95.90;;;;;;5059169;28;20086;-79
2021/01/17 05:43:16;;;;;;;10.13;5.38;;;0.80;96.50;;;;;;5064039;28;20483;-78
2021/01/17 05:45:42;;;;;;;10.40;5.65;;;0.80;96.70;;;;;;5058394;28;20044;-78
2021/01/17 05:48:08;;;;;;;12.60;6.13;;;0.80;96.10;;;;;;5051853;28;20037;-78
2021/01/17 05:50:35;;;;;;;10.65;5.57;;;0.80;96.00;;;;;;5061982;28;20020;-78
2021/01/17 05:53:03;;;;;;;12.55;6.05;;;0.70;96.40;;;;;;5061344;28;20021;-78
2021/01/17 05:55:43;;;;;;;9.93;6.03;;;0.70;96.90;;;;;;5050756;28;20025;-78
2021/01/17 05:58:30;;;;;;;11.70;6.30;;;0.70;96.90;;;;;;5067135;28;20032;-77
2021/01/17 06:00:56;;;;;;;12.77;5.95;;;0.90;96.40;;;;;;5050057;28;20578;-78
2021/01/17 06:03:29;;;;;;;14.65;6.75;;;0.90;96.20;;;;;;5053891;28;20031;-78
2021/01/17 06:06:05;;;;;;;10.77;5.95;;;0.70;96.90;;;;;;5052064;28;20086;-78
2021/01/17 06:08:32;;;;;;;12.68;6.25;;;0.70;97.20;;;;;;5050278;28;20052;-78
2021/01/17 06:11:10;;;;;;;10.63;5.65;;;0.80;96.60;;;;;;5058768;28;20032;-78
2021/01/17 06:13:38;;;;;;;12.43;5.32;;;0.90;96.40;;;;;;5054832;28;20021;-78
2021/01/17 06:16:21;;;;;;;10.73;6.15;;;0.90;96.30;;;;;;5057208;28;20044;-78
2021/01/17 06:18:53;;;;;;;10.55;5.75;;;1.00;95.80;;;;;;5054724;28;20554;-78
2021/01/17 06:21:18;;;;;;;13.52;6.78;;;0.80;96.50;;;;;;5064137;28;20453;-78
2021/01/17 06:23:59;;;;;;;19.08;8.52;;;0.70;96.70;;;;;;5064644;28;20032;-78
2021/01/17 06:26:36;;;;;;;17.42;7.78;;;0.80;96.30;;;;;;5053182;28;20036;-78
2021/01/17 06:29:04;;;;;;;17.42;7.88;;;0.80;96.50;;;;;;5053479;28;20051;-77
2021/01/17 06:31:31;;;;;;;13.05;6.50;;;0.80;97.00;;;;;;5061172;28;20493;-78
2021/01/17 06:34:13;;;;;;;12.52;6.10;;;0.70;97.20;;;;;;5051340;28;20053;-78
2021/01/17 06:36:40;;;;;;;13.07;6.20;;;0.60;97.30;;;;;;5051439;28;20556;-78
2021/01/17 06:39:19;;;;;;;14.73;6.75;;;0.60;97.60;;;;;;5055362;28;20031;-77
2021/01/17 06:41:48;;;;;;;12.93;6.20;;;0.60;98.00;;;;;;5050406;28;20037;-77
2021/01/17 06:44:14;;;;;;;12.82;5.90;;;0.60;98.30;;;;;;5058596;28;20120;-77
2021/01/17 06:46:45;;;;;;;14.25;6.28;;;0.70;98.10;;;;;;5050604;28;20124;-78
2021/01/17 06:49:25;;;;;;;10.82;5.95;;;0.60;98.00;;;;;;5065357;28;20028;-78
2021/01/17 06:51:52;;;;;;;11.20;5.88;;;0.70;98.20;;;;;;5055745;28;20032;-78
2021/01/17 06:54:20;;;;;;;9.70;5.53;;;0.70;98.10;;;;;;5058836;28;20024;-78
2021/01/17 06:56:48;;;;;;;11.88;6.25;;;0.70;98.50;;;;;;5057740;28;20017;-78
2021/01/17 06:59:41;;;;;;;13.68;6.13;;;0.70;98.70;;;;;;5065751;28;20036;-78
2021/01/17 07:02:13;;;;;;;11.32;5.78;;;0.70;99.00;;;;;;5049914;28;20025;-78
2021/01/17 07:04:53;;;;;;;11.43;5.95;;;0.70;98.80;;;;;;5053053;28;20372;-78
2021/01/17 07:07:43;;;;;;;11.85;6.22;;;0.70;98.70;;;;;;5050867;28;20037;-79
2021/01/17 07:10:12;;;;;;;10.82;5.75;;;0.80;97.70;;;;;;5052619;28;20061;-78
2021/01/17 07:12:46;;;;;;;13.80;6.78;;;1.00;97.50;;;;;;5054506;28;20047;-78
2021/01/17 07:15:12;;;;;;;11.10;5.95;;;1.00;96.70;;;;;;5052075;28;20159;-78
2021/01/17 07:17:43;;;;;;;12.82;6.53;;;0.80;97.10;;;;;;5061979;28;20036;-78
2021/01/17 07:20:11;;;;;;;14.27;6.93;;;0.80;97.30;;;;;;5051403;28;20427;-77
2021/01/17 07:22:37;;;;;;;14.68;7.15;;;0.80;97.90;;;;;;5049120;28;20086;-76
2021/01/17 07:25:06;;;;;;;14.43;6.43;;;0.90;97.40;;;;;;5059601;28;20117;-76
2021/01/17 07:28:01;;;;;;;12.80;6.75;;;0.80;97.90;;;;;;5058017;28;20037;-76
2021/01/17 07:30:38;;;;;;;14.75;6.63;;;0.80;97.80;;;;;;5055281;28;20091;-76
2021/01/17 07:33:05;;;;;;;16.67;7.38;;;0.90;98.40;;;;;;5047814;28;20028;-72
2021/01/17 07:35:40;;;;;;;12.23;6.35;;;1.00;97.70;;;;;;5050386;28;20031;-74
2021/01/17 07:38:17;;;;;;;12.57;6.57;;;1.20;97.40;;;;;;5049179;28;20036;-73
2021/01/17 07:40:55;;;;;;;16.00;6.93;;;1.20;97.50;;;;;;5061129;28;20028;-73
2021/01/17 07:43:25;;;;;;;11.98;5.90;;;1.30;97.10;;;;;;5059603;28;20085;-73
2021/01/17 07:45:52;;;;;;;11.27;5.78;;;1.30;96.40;;;;;;5055654;28;20740;-73
2021/01/17 07:48:19;;;;;;;10.85;6.03;;;1.10;97.60;;;;;;5059615;28;20106;-72
2021/01/17 07:50:47;;;;;;;12.52;6.40;;;1.00;98.00;;;;;;5069400;28;20387;-73
2021/01/17 07:53:22;;;;;;;11.88;6.60;;;1.10;98.10;;;;;;5055115;28;20726;-72
2021/01/17 07:55:49;;;;;;;12.05;6.22;;;1.20;98.00;;;;;;5068556;28;20454;-74
2021/01/17 07:58:17;;;;;;;16.17;6.45;;;1.20;98.30;;;;;;5052872;28;20031;-74
2021/01/17 08:00:42;;;;;;;12.95;6.00;;;1.20;98.10;;;;;;5052730;28;20039;-73
2021/01/17 08:03:08;;;;;;;11.70;6.07;;;1.20;98.10;;;;;;5053005;28;20576;-73
2021/01/17 08:06:12;;;;;;;13.05;6.60;;;1.10;98.10;;;;;;5052457;28;20394;-73
2021/01/17 08:08:44;;;;;;;14.57;7.07;;;1.10;98.50;;;;;;5052695;28;20076;-73
2021/01/17 08:11:09;;;;;;;;;;;1.00;98.80;;;;;;5063790;28;20121;-73
2021/01/17 08:13:35;;;;;;;12.93;6.30;;;1.10;99.30;;;;;;5055146;28;20738;-73
2021/01/17 08:19:40;;;;;;;12.90;6.22;;;1.00;99.50;;;;;;5057146;28;20152;-73
2021/01/17 08:22:32;;;;;;;10.85;6.10;;;1.10;99.20;;;;;;5060022;28;20479;-74
2021/01/17 08:25:36;;;;;;;10.07;5.55;;;1.20;98.30;;;;;;5058233;28;20021;-73
2021/01/17 08:28:28;;;;;;;12.50;6.20;;;1.20;98.00;;;;;;5049242;28;20498;-74
2021/01/17 08:30:53;;;;;;;;;;;1.10;98.40;;;;;;5053281;28;20021;-72
2021/01/17 08:33:19;;;;;;;9.98;5.38;;;1.10;98.70;;;;;;5057234;28;20352;-73
2021/01/17 08:35:44;;;;;;;10.43;5.90;;;1.10;98.70;;;;;;5054879;28;20029;-74
2021/01/17 08:38:15;;;;;;;10.93;5.45;;;1.10;98.60;;;;;;5062139;28;20083;-73
2021/01/17 08:40:50;;;;;;;10.18;5.15;;;1.30;98.90;;;;;;5067946;28;20036;-74
2021/01/17 08:43:16;;;;;;;11.93;6.70;;;1.20;98.40;;;;;;5071268;28;20040;-73
2021/01/17 08:45:47;;;;;;;12.43;6.40;;;1.20;98.80;;;;;;5060735;28;20076;-72
2021/01/17 08:48:49;;;;;;;11.38;6.00;;;1.10;99.00;;;;;;5052501;28;20120;-72
2021/01/17 08:51:14;;;;;;;10.23;5.82;;;1.30;98.30;;;;;;5055132;28;20065;-73
2021/01/17 08:53:40;;;;;;;10.63;5.88;;;1.20;98.50;;;;;;5056804;28;20097;-74
2021/01/17 08:56:13;;;;;;;10.98;5.97;;;1.30;98.60;;;;;;5059239;28;20032;-73
2021/01/17 08:58:39;;;;;;;9.70;5.63;;;1.30;98.50;;;;;;5066787;28;20036;-73
2021/01/17 09:01:06;;;;;;;11.15;6.38;;;1.30;99.00;;;;;;5054123;28;20025;-73
2021/01/17 09:03:35;;;;;;;13.38;6.53;;;1.30;99.20;;;;;;5055739;28;20112;-74
2021/01/17 09:06:22;;;;;;;12.88;6.78;;;1.30;98.50;;;;;;5058747;28;20037;-73
2021/01/17 09:08:53;;;;;;;12.07;6.57;;;1.30;98.60;;;;;;5061612;28;20230;-74
2021/01/17 09:11:38;;;;;;;13.55;6.18;;;1.50;98.10;;;;;;5053540;28;20036;-74
2021/01/17 09:14:21;;;;;;;13.80;6.47;;;1.60;97.80;;;;;;5055543;28;20043;-75
2021/01/17 09:16:55;;;;;;;11.40;6.32;;;1.70;97.90;;;;;;5053239;28;20036;-74
2021/01/17 09:19:24;;;;;;;14.18;6.82;;;1.60;97.80;;;;;;5059340;28;20025;-74
2021/01/17 09:21:51;;;;;;;12.60;6.78;;;1.70;97.60;;;;;;5058692;28;20391;-74
2021/01/17 09:24:19;;;;;;;13.30;6.60;;;1.60;98.10;;;;;;5068530;28;20122;-72
2021/01/17 09:26:56;;;;;;;12.20;6.30;;;1.70;97.90;;;;;;5054925;28;20021;-74
2021/01/17 09:29:26;;;;;;;11.00;6.45;;;1.60;97.30;;;;;;5053019;28;20666;-74
2021/01/17 09:31:54;;;;;;;11.77;6.72;;;1.60;97.50;;;;;;5055723;28;20112;-73
2021/01/17 09:34:25;;;;;;;13.52;7.15;;;1.60;97.40;;;;;;5063624;28;20024;-73
2021/01/17 09:36:50;;;;;;;11.82;6.43;;;1.50;97.60;;;;;;5060256;28;20054;-72
2021/01/17 09:39:30;;;;;;;12.77;6.72;;;1.50;98.40;;;;;;5066053;28;20142;-74
2021/01/17 09:41:57;;;;;;;11.55;6.72;;;1.50;98.40;;;;;;5063636;28;20486;-75
2021/01/17 09:44:22;;;;;;;11.65;6.43;;;1.60;98.40;;;;;;5064104;28;20044;-76
2021/01/17 09:46:48;;;;;;;12.93;7.20;;;1.70;98.30;;;;;;5066816;28;20028;-75
2021/01/17 09:49:14;;;;;;;12.43;6.65;;;1.80;97.80;;;;;;5065504;28;20040;-77
2021/01/17 09:51:45;;;;;;;18.10;7.50;;;1.70;97.60;;;;;;5066078;28;20048;-77
2021/01/17 09:54:11;;;;;;;14.25;7.63;;;1.80;97.80;;;;;;5065056;28;20052;-73
2021/01/17 09:56:40;;;;;;;13.02;6.50;;;1.70;98.20;;;;;;5064489;28;20063;-76
2021/01/17 09:59:11;;;;;;;14.00;6.80;;;1.70;98.30;;;;;;5067265;28;20025;-76
2021/01/17 10:01:37;;;;;;;11.55;6.35;;;1.80;98.10;;;;;;5063091;28;20047;-76
2021/01/17 10:04:03;;;;;;;13.35;6.50;;;1.90;97.50;;;;;;5063834;28;20067;-77
2021/01/17 10:06:32;;;;;;;11.60;6.35;;;2.10;97.00;;;;;;5066980;28;20056;-76
2021/01/17 10:08:58;;;;;;;12.73;7.15;;;1.90;97.50;;;;;;5063954;28;20052;-76
2021/01/17 10:11:23;;;;;;;17.52;7.60;;;1.90;97.30;;;;;;5063184;28;20024;-79
2021/01/17 10:13:49;;;;;;;9.85;6.72;;;1.90;98.00;;;;;;5056344;28;20040;-75
2021/01/17 10:16:24;;;;;;;14.27;7.32;;;1.90;97.40;;;;;;5066773;28;20191;-77
2021/01/17 10:18:50;;;;;;;15.95;7.65;;;1.90;97.80;;;;;;5064775;28;20119;-76
2021/01/17 10:21:18;;;;;;;12.25;6.45;;;2.00;97.50;;;;;;5063554;28;20467;-76
2021/01/17 10:23:43;;;;;;;14.43;7.30;;;2.10;97.70;;;;;;5064668;28;20440;-76
2021/01/17 10:26:11;;;;;;;16.83;7.32;;;2.00;98.20;;;;;;5065773;28;20044;-77
2021/01/17 10:28:40;;;;;;;13.80;7.25;;;2.00;98.50;;;;;;5065560;28;20063;-77
2021/01/17 10:31:09;;;;;;;16.20;7.90;;;2.20;98.40;;;;;;5064277;28;20086;-78
2021/01/17 10:33:34;;;;;;;15.40;7.57;;;2.10;97.90;;;;;;5065573;28;20465;-76
2021/01/17 10:36:00;;;;;;;14.18;7.20;;;2.30;97.50;;;;;;5062504;28;20360;-76
2021/01/17 10:38:29;;;;;;;12.45;6.60;;;2.30;97.20;;;;;;5066193;28;20078;-76
2021/01/17 10:40:54;;;;;;;17.55;7.43;;;2.30;97.50;;;;;;5065125;28;20032;-77
2021/01/17 10:43:32;;;;;;;16.35;7.75;;;2.40;96.80;;;;;;5066771;28;20036;-78
2021/01/17 10:46:07;;;;;;;15.07;7.22;;;2.60;96.60;;;;;;5064664;28;20036;-77
2021/01/17 10:48:38;;;;;;;15.30;7.57;;;2.60;96.20;;;;;;5064663;28;20043;-77
2021/01/17 10:51:09;;;;;;;15.43;7.50;;;2.70;95.80;;;;;;5066237;28;20471;-75
2021/01/17 10:53:48;;;;;;;20.38;7.28;;;2.80;95.80;;;;;;5065435;28;20136;-76
2021/01/17 10:56:20;;;;;;;15.23;6.45;;;2.90;95.70;;;;;;5060233;28;20020;-87
2021/01/17 10:58:46;;;;;;;17.48;7.03;;;2.80;95.00;;;;;;5065525;28;20040;-76
2021/01/17 11:01:15;;;;;;;16.58;7.03;;;2.70;94.90;;;;;;5062869;28;20024;-76
2021/01/17 11:03:43;;;;;;;17.70;7.57;;;2.70;95.50;;;;;;5058463;28;20036;-76
2021/01/17 11:06:11;;;;;;;14.43;6.63;;;2.80;95.70;;;;;;5065964;28;20040;-76
2021/01/17 11:08:57;;;;;;;11.30;6.18;;;2.90;95.60;;;;;;5064259;28;20754;-77
2021/01/17 11:11:27;;;;;;;18.15;6.80;;;2.90;95.50;;;;;;5061247;28;20435;-78
2021/01/17 11:14:05;;;;;;;17.17;7.70;;;3.00;95.20;;;;;;5067955;28;20020;-78
2021/01/17 11:16:42;;;;;;;14.75;7.13;;;2.80;95.60;;;;;;5069911;28;20318;-77
2021/01/17 11:19:09;;;;;;;16.75;6.63;;;2.80;96.40;;;;;;5066398;28;20159;-76
2021/01/17 11:21:36;;;;;;;14.32;6.70;;;2.90;95.40;;;;;;5071452;28;20543;-76
2021/01/17 11:24:04;;;;;;;12.07;6.43;;;3.00;95.20;;;;;;5072015;28;20119;-76
2021/01/17 11:26:30;;;;;;;11.32;6.20;;;3.00;94.50;;;;;;5073329;28;20032;-75
2021/01/17 11:29:03;;;;;;;14.02;6.72;;;3.10;94.70;;;;;;5071382;28;20074;-76
2021/01/17 11:31:29;;;;;;;13.02;6.47;;;3.20;95.00;;;;;;5071891;28;20102;-77
2021/01/17 11:33:55;;;;;;;14.02;7.10;;;3.30;94.40;;;;;;5072722;28;20459;-75
2021/01/17 11:36:26;;;;;;;14.23;7.45;;;3.30;94.00;;;;;;5072387;28;20032;-74
2021/01/17 11:38:53;;;;;;;15.60;7.28;;;3.50;93.90;;;;;;5071700;28;20663;-74
2021/01/17 11:41:20;;;;;;;14.52;7.60;;;3.40;93.40;;;;;;5072718;28;20371;-74
2021/01/17 11:43:46;;;;;;;13.35;6.65;;;3.30;93.30;;;;;;5072336;28;20566;-71
2021/01/17 11:46:14;;;;;;;14.40;7.30;;;3.40;93.80;;;;;;5070961;28;20208;-72
2021/01/17 11:48:40;;;;;;;17.02;7.55;;;3.40;94.00;;;;;;5072962;28;20435;-73
2021/01/17 11:51:07;;;;;;;16.13;7.15;;;3.40;93.90;;;;;;5069310;28;20032;-74
2021/01/17 11:53:33;;;;;;;17.30;7.70;;;3.40;94.10;;;;;;5067473;28;20035;-74
2021/01/17 11:55:59;;;;;;;14.75;6.55;;;3.50;93.50;;;;;;5070295;28;20029;-73
2021/01/17 11:58:26;;;;;;;15.45;7.60;;;3.60;93.10;;;;;;5074624;28;20174;-73
2021/01/17 12:00:53;;;;;;;20.58;7.03;;;3.70;92.60;;;;;;5073159;28;20043;-74
2021/01/17 12:03:24;;;;;;;16.75;7.60;;;3.60;93.10;;;;;;5071709;28;20115;-75
2021/01/17 12:06:15;;;;;;;17.48;7.85;;;3.50;93.20;;;;;;5071291;28;20039;-76
2021/01/17 12:08:52;;;;;;;14.90;7.72;;;3.60;92.90;;;;;;5074345;28;20041;-77
2021/01/17 12:11:39;;;;;;;17.73;8.40;;;3.40;93.50;;;;;;5072439;28;20028;-77
2021/01/17 12:14:06;;;;;;;18.27;8.35;;;3.60;93.80;;;;;;5072530;28;20051;-77
2021/01/17 12:16:35;;;;;;;17.67;8.25;;;3.50;93.10;;;;;;5069947;28;20020;-77
2021/01/17 12:19:01;;;;;;;16.92;8.77;;;3.50;93.30;;;;;;5071675;28;20032;-76
2021/01/17 12:21:28;;;;;;;22.50;11.07;;;3.40;93.40;;;;;;5071160;28;21139;-75
2021/01/17 12:23:58;;;;;;;21.30;10.20;;;3.30;94.00;;;;;;5070637;28;20036;-77
2021/01/17 12:26:24;;;;;;;16.23;8.63;;;3.20;94.40;;;;;;5070390;28;20032;-74
2021/01/17 12:28:50;;;;;;;25.45;9.13;;;3.20;94.10;;;;;;5074334;28;20155;-77
2021/01/17 12:31:17;;;;;;;19.45;8.98;;;3.20;94.20;;;;;;5073754;28;20035;-76
2021/01/17 12:33:44;;;;;;;20.05;8.60;;;3.30;93.50;;;;;;5071129;28;20070;-78
2021/01/17 12:36:11;;;;;;;19.25;9.27;;;3.20;93.60;;;;;;5077261;28;20035;-76
2021/01/17 12:38:37;;;;;;;17.60;8.68;;;3.20;94.10;;;;;;5070495;28;20033;-77
2021/01/17 12:41:13;;;;;;;16.67;8.93;;;3.20;93.70;;;;;;5077339;28;20040;-78
2021/01/17 12:43:40;;;;;;;19.20;8.75;;;3.20;93.50;;;;;;5077656;28;20086;-78
2021/01/17 12:46:07;;;;;;;19.60;9.00;;;3.20;93.70;;;;;;5075900;28;20653;-78
2021/01/17 12:48:33;;;;;;;18.27;8.68;;;3.20;93.70;;;;;;5075748;28;20109;-78
2021/01/17 12:50:59;;;;;;;21.15;9.05;;;3.20;94.00;;;;;;5076624;28;20024;-78
2021/01/17 12:53:25;;;;;;;17.90;8.48;;;3.10;94.20;;;;;;5077524;28;20024;-78
2021/01/17 12:55:50;;;;;;;16.80;8.57;;;3.10;94.50;;;;;;5077060;28;20111;-78
2021/01/17 12:58:16;;;;;;;18.63;9.23;;;3.20;94.40;;;;;;5077640;28;20035;-78
2021/01/17 13:00:41;;;;;;;21.15;9.63;;;3.10;94.50;;;;;;5076048;28;20032;-78
2021/01/17 13:03:07;;;;;;;22.35;10.20;;;3.00;95.30;;;;;;5075036;28;20042;-79
2021/01/17 13:05:34;;;;;;;23.38;9.50;;;2.90;95.30;;;;;;5076668;28;20098;-78
2021/01/17 13:08:00;;;;;;;16.85;9.15;;;2.90;95.70;;;;;;5076261;28;20097;-78